createdAt,value
2018-11-20T00:02:28.352Z,5.10
2018-11-20T00:05:17.866Z,5.10
2018-11-20T00:08:25.742Z,5.10
2018-11-20T00:11:21.262Z,5.10
2018-11-20T00:14:09.488Z,5.10
2018-11-20T00:16:59.713Z,5.10
2018-11-20T00:19:44.148Z,5.10
2018-11-20T00:22:45.782Z,5.10
2018-11-20T00:25:37.827Z,5.10
2018-11-20T00:28:31.228Z,5.10
2018-11-20T00:31:27.005Z,5.20
2018-11-20T00:34:17.145Z,5.10
2018-11-20T00:37:16.392Z,5.10
2018-11-20T00:40:12.332Z,5.10
2018-11-20T00:42:54.982Z,5.10
2018-11-20T00:45:56.257Z,5.20
2018-11-20T00:48:52.957Z,5.10
2018-11-20T00:51:41.502Z,5.10
2018-11-20T00:54:29.952Z,5.10
2018-11-20T00:57:22.088Z,5.10
2018-11-20T01:00:11.617Z,5.00
2018-11-20T01:03:09.722Z,4.90
2018-11-20T01:05:54.922Z,4.90
2018-11-20T01:08:43.237Z,5.00
2018-11-20T01:11:30.843Z,5.00
2018-11-20T01:14:24.147Z,5.00
2018-11-20T01:17:22.457Z,4.90
2018-11-20T01:20:10.457Z,4.90
2018-11-20T01:23:02.642Z,4.80
2018-11-20T01:26:04.352Z,4.90
2018-11-20T01:28:52.777Z,5.00
2018-11-20T01:31:42.472Z,5.00
2018-11-20T01:34:30.512Z,5.00
2018-11-20T01:37:15.731Z,5.00
2018-11-20T01:40:01.807Z,5.00
2018-11-20T01:42:49.804Z,4.90
2018-11-20T01:45:37.892Z,4.90
2018-11-20T01:48:39.728Z,4.90
2018-11-20T01:51:35.697Z,4.90
2018-11-20T01:54:24.517Z,4.80
2018-11-20T01:57:09.092Z,4.80
2018-11-20T02:00:07.553Z,4.70
2018-11-20T02:03:00.478Z,4.80
2018-11-20T02:05:59.413Z,4.80
2018-11-20T02:08:55.342Z,4.80
2018-11-20T02:11:53.577Z,4.80
2018-11-20T02:14:42.467Z,4.80
2018-11-20T02:17:33.535Z,4.90
2018-11-20T02:20:21.212Z,4.80
2018-11-20T02:23:20.013Z,4.80
2018-11-20T02:26:21.512Z,4.80
2018-11-20T02:29:26.263Z,4.70
2018-11-20T02:32:14.432Z,4.70
2018-11-20T02:34:56.353Z,4.60
2018-11-20T02:37:44.688Z,4.60
2018-11-20T02:40:35.048Z,4.60
2018-11-20T02:43:24.033Z,4.60
2018-11-20T02:46:13.834Z,4.60
2018-11-20T02:49:01.759Z,4.60
2018-11-20T02:51:50.188Z,4.60
2018-11-20T02:54:53.994Z,4.60
2018-11-20T02:57:42.353Z,4.50
2018-11-20T03:00:31.133Z,4.50
2018-11-20T03:03:35.268Z,4.50
2018-11-20T03:06:29.078Z,4.50
2018-11-20T03:09:30.862Z,4.50
2018-11-20T03:12:29.573Z,4.40
2018-11-20T03:15:19.770Z,4.40
2018-11-20T03:18:15.181Z,4.40
2018-11-20T03:21:23.157Z,4.40
2018-11-20T03:24:15.718Z,4.30
2018-11-20T03:27:08.582Z,4.30
2018-11-20T03:30:45.262Z,4.30
2018-11-20T03:33:24.268Z,4.30
2018-11-20T03:36:31.793Z,4.30
2018-11-20T03:39:19.983Z,4.30
2018-11-20T03:42:24.482Z,4.20
2018-11-20T03:45:26.447Z,4.30
2018-11-20T03:48:21.308Z,4.40
2018-11-20T03:51:22.684Z,4.30
2018-11-20T03:54:30.368Z,4.20
2018-11-20T03:57:11.863Z,4.20
2018-11-20T03:59:59.748Z,4.30
2018-11-20T04:02:56.882Z,4.30
2018-11-20T04:05:52.992Z,4.20
2018-11-20T04:08:41.538Z,4.10
2018-11-20T04:11:37.733Z,4.10
2018-11-20T04:14:26.837Z,4.10
2018-11-20T04:17:18.082Z,4.20
2018-11-20T04:20:08.023Z,4.20
2018-11-20T04:22:57.533Z,4.10
2018-11-20T04:25:50.158Z,4.00
2018-11-20T04:28:30.172Z,4.00
2018-11-20T04:31:57.754Z,3.90
2018-11-20T04:34:53.788Z,4.00
2018-11-20T04:37:37.932Z,3.90
2018-11-20T04:40:31.188Z,4.00
2018-11-20T04:43:33.022Z,3.90
2018-11-20T04:46:21.710Z,3.90
2018-11-20T04:49:10.038Z,3.90
2018-11-20T04:52:05.488Z,4.00
2018-11-20T04:54:53.622Z,4.00
2018-11-20T04:57:42.240Z,3.90
2018-11-20T05:00:24.898Z,3.90
2018-11-20T05:03:08.493Z,3.90
2018-11-20T05:05:56.970Z,3.80
2018-11-20T05:08:45.647Z,3.90
2018-11-20T05:11:30.557Z,3.90
2018-11-20T05:14:18.833Z,3.90
2018-11-20T05:16:58.723Z,3.90
2018-11-20T05:19:47.548Z,3.90
2018-11-20T05:22:49.657Z,3.90
2018-11-20T05:25:43.593Z,4.00
2018-11-20T05:28:37.397Z,4.00
2018-11-20T05:31:27.233Z,3.90
2018-11-20T05:34:04.980Z,4.00
2018-11-20T05:36:52.583Z,4.00
2018-11-20T05:39:46.767Z,4.00
2018-11-20T05:42:35.323Z,4.00
2018-11-20T05:45:17.078Z,4.00
2018-11-20T05:48:05.272Z,4.00
2018-11-20T05:50:54.618Z,3.90
2018-11-20T05:53:36.053Z,4.00
2018-11-20T05:56:18.537Z,4.00
2018-11-20T05:59:06.668Z,3.90
2018-11-20T06:01:54.593Z,4.00
2018-11-20T06:04:47.248Z,4.00
2018-11-20T06:07:43.777Z,4.00
2018-11-20T06:10:31.943Z,4.00
2018-11-20T06:13:24.675Z,3.90
2018-11-20T06:16:13.138Z,3.90
2018-11-20T06:19:08.995Z,4.00
2018-11-20T06:22:07.232Z,4.00
2018-11-20T06:24:55.907Z,4.00
2018-11-20T06:27:45.053Z,4.00
2018-11-20T06:30:52.663Z,4.10
2018-11-20T06:33:42.413Z,4.10
2018-11-20T06:36:28.122Z,4.10
2018-11-20T06:39:24.178Z,4.10
2018-11-20T06:42:12.382Z,4.10
2018-11-20T06:45:00.478Z,4.00
2018-11-20T06:47:44.767Z,4.10
2018-11-20T06:50:43.363Z,4.00
2018-11-20T06:53:31.632Z,4.00
2018-11-20T06:56:35.258Z,4.10
2018-11-20T06:59:24.803Z,4.10
2018-11-20T07:02:17.023Z,4.20
2018-11-20T07:05:07.252Z,4.10
2018-11-20T07:07:56.988Z,4.20
2018-11-20T07:10:48.742Z,4.30
2018-11-20T07:14:02.373Z,4.30
2018-11-20T07:16:52.963Z,4.40
2018-11-20T07:19:40.307Z,4.40
2018-11-20T07:22:29.095Z,4.40
2018-11-20T07:25:17.198Z,4.40
2018-11-20T07:28:05.843Z,4.50
2018-11-20T07:30:54.353Z,4.50
2018-11-20T07:33:52.778Z,4.50
2018-11-20T07:36:47.990Z,4.60
2018-11-20T07:39:55.582Z,4.50
2018-11-20T07:42:48.132Z,4.50
2018-11-20T07:45:56.147Z,4.60
2018-11-20T07:48:50.978Z,4.50
2018-11-20T07:51:49.419Z,4.50
2018-11-20T07:54:37.452Z,4.50
2018-11-20T07:57:29.477Z,4.60
2018-11-20T08:00:17.953Z,4.70
2018-11-20T08:03:20.018Z,4.70
2018-11-20T08:06:07.472Z,4.70
2018-11-20T08:08:55.473Z,4.80
2018-11-20T08:11:44.072Z,4.90
2018-11-20T08:14:41.754Z,4.90
2018-11-20T08:17:45.923Z,4.90
2018-11-20T08:20:54.429Z,5.00
2018-11-20T08:23:43.807Z,5.00
2018-11-20T08:26:40.031Z,5.00
2018-11-20T08:29:27.872Z,5.00
2018-11-20T08:32:20.934Z,5.00
2018-11-20T08:35:10.999Z,5.00
2018-11-20T08:37:56.693Z,5.00
2018-11-20T08:41:01.743Z,5.00
2018-11-20T08:43:50.028Z,5.00
2018-11-20T08:46:48.288Z,5.00
2018-11-20T08:49:36.308Z,4.60
2018-11-20T08:52:16.461Z,4.70
2018-11-20T08:54:59.052Z,4.90
2018-11-20T08:58:00.630Z,5.00
2018-11-20T09:00:39.403Z,5.00
2018-11-20T09:03:44.393Z,5.00
2018-11-20T09:06:33.863Z,5.10
2018-11-20T09:09:22.123Z,5.10
2018-11-20T09:12:14.868Z,5.20
2018-11-20T09:15:10.783Z,5.20
2018-11-20T09:18:07.463Z,5.20
2018-11-20T09:20:54.979Z,5.20
2018-11-20T09:23:44.423Z,5.30
2018-11-20T09:26:36.417Z,5.30
2018-11-20T09:29:32.018Z,5.30
2018-11-20T09:32:27.712Z,5.30
2018-11-20T09:35:20.567Z,5.40
2018-11-20T09:38:08.177Z,5.40
2018-11-20T09:41:03.513Z,5.40
2018-11-20T09:44:08.706Z,5.50
2018-11-20T09:46:57.566Z,5.50
2018-11-20T09:49:59.232Z,5.50
2018-11-20T09:52:47.865Z,5.60
2018-11-20T09:55:55.498Z,5.60
2018-11-20T09:58:43.747Z,5.60
2018-11-20T10:01:29.578Z,5.70
2018-11-20T10:04:17.808Z,5.80
2018-11-20T10:06:59.574Z,5.80
2018-11-20T10:09:52.747Z,5.80
2018-11-20T10:12:41.892Z,5.90
2018-11-20T10:15:35.367Z,6.00
2018-11-20T10:18:23.745Z,5.90
2018-11-20T10:21:28.573Z,6.00
2018-11-20T10:24:26.713Z,6.00
2018-11-20T10:27:22.959Z,6.10
2018-11-20T10:30:14.993Z,6.10
2018-11-20T10:33:05.117Z,6.40
2018-11-20T10:36:06.837Z,6.60
2018-11-20T10:39:02.209Z,6.70
2018-11-20T10:42:09.548Z,6.80
2018-11-20T10:44:57.348Z,6.90
2018-11-20T10:47:45.643Z,6.90
2018-11-20T10:50:33.768Z,6.80
2018-11-20T10:53:21.588Z,6.70
2018-11-20T10:56:26.444Z,6.60
2018-11-20T10:59:28.326Z,6.60
2018-11-20T11:03:13.277Z,6.70
2018-11-20T11:06:00.393Z,6.90
2018-11-20T11:08:47.567Z,7.10
2018-11-20T11:11:42.722Z,7.10
2018-11-20T11:14:30.361Z,7.00
2018-11-20T11:17:17.253Z,7.10
2018-11-20T11:20:09.010Z,7.10
2018-11-20T11:23:09.933Z,6.80
2018-11-20T11:26:04.734Z,6.90
2018-11-20T11:28:58.840Z,6.90
2018-11-20T11:32:00.180Z,6.60
2018-11-20T11:35:01.430Z,6.60
2018-11-20T11:37:43.371Z,6.80
2018-11-20T11:40:30.539Z,6.90
2018-11-20T11:43:18.234Z,6.70
2018-11-20T11:46:06.984Z,6.70
2018-11-20T11:49:02.279Z,6.50
2018-11-20T11:51:49.554Z,6.70
2018-11-20T11:54:54.110Z,6.60
2018-11-20T11:57:41.709Z,6.00
2018-11-20T12:00:47.784Z,6.00
2018-11-20T12:03:35.769Z,6.00
2018-11-20T12:06:33.759Z,6.10
2018-11-20T12:09:21.120Z,6.10
2018-11-20T12:12:28.698Z,6.00
2018-11-20T12:15:16.515Z,5.80
2018-11-20T12:18:00.144Z,5.80
2018-11-20T12:20:52.103Z,5.70
2018-11-20T12:23:59.644Z,5.90
2018-11-20T12:26:47.299Z,6.10
2018-11-20T12:29:39.381Z,6.20
2018-11-20T12:32:24.499Z,6.20
2018-11-20T12:35:15.610Z,6.00
2018-11-20T12:38:08.859Z,6.10
2018-11-20T12:41:07.356Z,6.30
2018-11-20T12:44:06.042Z,6.20
2018-11-20T12:46:51.099Z,6.50
2018-11-20T12:49:38.894Z,6.40
2018-11-20T12:52:33.054Z,6.50
2018-11-20T12:55:25.319Z,6.90
2018-11-20T12:58:13.960Z,7.10
2018-11-20T13:00:59.245Z,6.60
2018-11-20T13:03:47.805Z,6.30
2018-11-20T13:06:38.468Z,6.10
2018-11-20T13:09:32.789Z,6.20
2018-11-20T13:12:25.060Z,6.10
2018-11-20T13:15:12.669Z,6.30
2018-11-20T13:18:13.704Z,6.30
2018-11-20T13:21:11.375Z,6.30
2018-11-20T13:23:59.754Z,6.20
2018-11-20T13:26:51.134Z,6.20
2018-11-20T13:29:38.159Z,6.30
2018-11-20T13:32:39.115Z,6.30
2018-11-20T13:35:33.269Z,6.40
2018-11-20T13:38:40.879Z,6.40
2018-11-20T13:42:07.233Z,6.30
2018-11-20T13:45:05.009Z,6.30
2018-11-20T13:47:52.781Z,6.50
2018-11-20T13:50:46.391Z,6.60
2018-11-20T13:53:41.809Z,6.60
2018-11-20T13:56:29.023Z,6.60
2018-11-20T13:59:23.359Z,6.70
2018-11-20T14:02:31.119Z,6.50
2018-11-20T14:05:35.308Z,6.40
2018-11-20T14:08:24.408Z,6.40
2018-11-20T14:11:12.139Z,6.50
2018-11-20T14:14:09.280Z,6.60
2018-11-20T14:16:58.451Z,6.70
2018-11-20T14:19:59.085Z,6.70
2018-11-20T14:23:06.439Z,6.70
2018-11-20T14:25:59.969Z,6.70
2018-11-20T14:28:49.233Z,6.90
2018-11-20T14:31:56.284Z,6.90
2018-11-20T14:34:45.822Z,6.90
2018-11-20T14:37:43.485Z,7.20
2018-11-20T14:40:30.699Z,7.40
2018-11-20T14:43:22.079Z,7.50
2018-11-20T14:46:09.790Z,7.60
2018-11-20T14:49:04.914Z,7.70
2018-11-20T14:51:59.514Z,7.70
2018-11-20T14:54:46.759Z,7.60
2018-11-20T14:57:41.574Z,7.40
2018-11-20T15:00:29.210Z,7.20
2018-11-20T15:03:16.884Z,7.10
2018-11-20T15:06:08.290Z,7.00
2018-11-20T15:09:02.100Z,6.90
2018-11-20T15:11:51.190Z,6.80
2018-11-20T15:14:38.534Z,6.60
2018-11-20T15:17:36.854Z,6.40
2018-11-20T15:20:26.951Z,6.30
2018-11-20T15:23:22.060Z,6.20
2018-11-20T15:26:04.158Z,6.10
2018-11-20T15:28:49.340Z,6.00
2018-11-20T15:31:41.539Z,6.00
2018-11-20T15:34:29.939Z,6.00
2018-11-20T15:37:22.799Z,5.90
2018-11-20T15:40:20.855Z,5.90
2018-11-20T15:43:10.709Z,5.70
2018-11-20T15:46:08.794Z,5.60
2018-11-20T15:49:00.385Z,5.50
2018-11-20T15:52:07.914Z,5.40
2018-11-20T15:55:25.485Z,5.40
2018-11-20T15:58:13.624Z,5.50
2018-11-20T16:01:12.069Z,5.50
2018-11-20T16:04:13.624Z,5.60
2018-11-20T16:07:01.661Z,5.60
2018-11-20T16:09:51.649Z,5.70
2018-11-20T16:12:46.472Z,5.70
2018-11-20T16:15:33.804Z,5.60
2018-11-20T16:18:11.220Z,5.50
2018-11-20T16:20:58.611Z,5.40
2018-11-20T16:23:46.154Z,5.40
2018-11-20T16:26:33.751Z,5.30
2018-11-20T16:29:25.340Z,5.10
2018-11-20T16:32:13.946Z,5.10
2018-11-20T16:35:02.304Z,5.10
2018-11-20T16:37:50.200Z,5.10
2018-11-20T16:40:37.906Z,5.10
2018-11-20T16:43:25.303Z,5.10
2018-11-20T16:46:13.029Z,5.10
2018-11-20T16:49:00.298Z,5.00
2018-11-20T16:51:51.374Z,4.90
2018-11-20T16:54:46.599Z,4.70
2018-11-20T16:57:27.380Z,4.70
2018-11-20T17:00:15.075Z,4.70
2018-11-20T17:03:06.694Z,4.70
2018-11-20T17:05:54.301Z,4.70
2018-11-20T17:08:55.204Z,4.60
2018-11-20T17:11:43.440Z,4.70
2018-11-20T17:14:32.872Z,4.70
2018-11-20T17:17:24.600Z,4.60
2018-11-20T17:20:12.659Z,4.70
2018-11-20T17:23:08.264Z,4.70
2018-11-20T17:25:53.509Z,4.80
2018-11-20T17:28:41.053Z,4.80
2018-11-20T17:31:27.879Z,4.90
2018-11-20T17:34:15.183Z,4.80
2018-11-20T17:37:04.764Z,4.80
2018-11-20T17:40:00.204Z,4.80
2018-11-20T17:42:49.100Z,4.80
2018-11-20T17:45:36.574Z,4.80
2018-11-20T17:48:24.235Z,4.90
2018-11-20T17:51:19.270Z,4.70
2018-11-20T17:54:09.489Z,4.60
2018-11-20T17:56:57.194Z,4.70
2018-11-20T17:59:43.084Z,4.80
2018-11-20T18:02:41.125Z,4.80
2018-11-20T18:05:40.035Z,4.90
2018-11-20T18:08:28.064Z,5.00
2018-11-20T18:11:20.000Z,5.00
2018-11-20T18:14:07.459Z,4.60
2018-11-20T18:17:20.087Z,4.50
2018-11-20T18:19:56.864Z,4.70
2018-11-20T18:22:45.439Z,4.80
2018-11-20T18:25:47.230Z,4.90
2018-11-20T18:28:38.886Z,5.00
2018-11-20T18:31:26.339Z,5.00
2018-11-20T18:34:13.850Z,5.10
2018-11-20T18:37:03.185Z,5.10
2018-11-20T18:39:54.749Z,5.10
2018-11-20T18:42:52.285Z,5.10
2018-11-20T18:45:40.010Z,5.10
2018-11-20T18:48:35.005Z,5.10
2018-11-20T18:51:31.074Z,5.10
2018-11-20T18:54:10.319Z,5.10
2018-11-20T18:56:58.255Z,5.10
2018-11-20T18:59:45.784Z,5.20
2018-11-20T19:02:33.175Z,5.30
2018-11-20T19:05:20.900Z,5.30
2018-11-20T19:08:18.819Z,5.30
2018-11-20T19:11:06.235Z,5.40
2018-11-20T19:13:55.515Z,5.40
2018-11-20T19:16:42.764Z,5.40
2018-11-20T19:19:34.434Z,5.40
2018-11-20T19:22:29.855Z,5.40
2018-11-20T19:25:18.209Z,5.40
2018-11-20T19:28:10.669Z,5.40
2018-11-20T19:30:58.223Z,5.40
2018-11-20T19:33:45.960Z,5.40
2018-11-20T19:36:37.757Z,5.40
2018-11-20T19:39:29.785Z,5.40
2018-11-20T19:42:25.080Z,5.30
2018-11-20T19:45:08.892Z,5.40
2018-11-20T19:47:56.515Z,5.40
2018-11-20T19:50:44.504Z,5.50
2018-11-20T19:53:51.972Z,5.40
2018-11-20T19:56:42.999Z,5.40
2018-11-20T19:59:35.654Z,5.40
2018-11-20T20:02:40.100Z,5.40
2018-11-20T20:05:28.168Z,5.30
2018-11-20T20:08:20.169Z,5.30
2018-11-20T20:11:15.884Z,5.20
2018-11-20T20:13:56.286Z,4.90
2018-11-20T20:17:00.685Z,4.90
2018-11-20T20:20:05.454Z,4.70
2018-11-20T20:22:49.244Z,4.50
2018-11-20T20:25:56.785Z,4.50
2018-11-20T20:29:01.429Z,4.70
2018-11-20T20:32:08.281Z,4.50
2018-11-20T20:34:57.795Z,4.60
2018-11-20T20:37:45.120Z,4.60
2018-11-20T20:40:32.565Z,4.70
2018-11-20T20:43:34.285Z,4.60
2018-11-20T20:46:38.889Z,4.50
2018-11-20T20:49:21.554Z,4.40
2018-11-20T20:52:09.304Z,4.40
2018-11-20T20:55:07.085Z,4.50
2018-11-20T20:58:02.585Z,4.50
2018-11-20T21:00:58.570Z,4.50
2018-11-20T21:03:49.949Z,4.50
2018-11-20T21:06:42.414Z,4.40
2018-11-20T21:09:47.786Z,4.40
2018-11-20T21:12:49.814Z,4.20
2018-11-20T21:15:41.394Z,4.10
2018-11-20T21:18:29.484Z,4.00
2018-11-20T21:21:17.274Z,3.90
2018-11-20T21:23:57.769Z,3.90
2018-11-20T21:26:52.526Z,4.10
2018-11-20T21:29:41.136Z,4.10
2018-11-20T21:32:22.504Z,4.20
2018-11-20T21:35:15.345Z,4.10
2018-11-20T21:38:02.710Z,4.10
2018-11-20T21:41:06.970Z,4.10
2018-11-20T21:43:54.611Z,4.10
2018-11-20T21:46:42.594Z,3.90
2018-11-20T21:49:32.056Z,3.90
2018-11-20T21:52:16.760Z,4.00
2018-11-20T21:55:04.224Z,3.90
2018-11-20T21:58:05.441Z,3.90
2018-11-20T22:00:59.640Z,3.80
2018-11-20T22:04:00.735Z,3.80
2018-11-20T22:07:07.629Z,3.80
2018-11-20T22:10:04.165Z,3.60
2018-11-20T22:12:52.507Z,3.50
2018-11-20T22:15:59.289Z,3.40
2018-11-20T22:18:57.865Z,3.20
2018-11-20T22:21:52.824Z,3.10
2018-11-20T22:24:39.710Z,3.20
2018-11-20T22:27:47.464Z,3.10
2018-11-20T22:30:45.406Z,3.20
2018-11-20T22:33:34.499Z,3.20
2018-11-20T22:36:32.585Z,3.00
2018-11-20T22:39:24.914Z,3.20
2018-11-20T22:42:12.750Z,3.30
2018-11-20T22:45:00.710Z,2.90
2018-11-20T22:47:48.364Z,2.80
2018-11-20T22:50:30.834Z,2.70
2018-11-20T22:53:25.800Z,2.60
2018-11-20T22:56:23.618Z,2.50
2018-11-20T22:59:15.070Z,2.70
2018-11-20T23:02:09.986Z,2.80
2018-11-20T23:04:55.309Z,3.00
2018-11-20T23:07:47.074Z,2.80
2018-11-20T23:10:19.410Z,2.50
2018-11-20T23:12:49.264Z,2.60
2018-11-20T23:15:19.379Z,2.80
2018-11-20T23:17:49.699Z,3.00
2018-11-20T23:20:20.267Z,3.10
2018-11-20T23:22:50.874Z,3.10
2018-11-20T23:25:20.844Z,3.20
2018-11-20T23:27:50.634Z,3.30
2018-11-20T23:30:21.134Z,3.30
2018-11-20T23:32:51.655Z,2.70
2018-11-20T23:35:21.697Z,2.80
2018-11-20T23:37:52.550Z,2.90
2018-11-20T23:40:22.509Z,2.90
2018-11-20T23:42:53.227Z,2.80
2018-11-20T23:45:23.614Z,2.60
2018-11-20T23:47:53.405Z,2.40
2018-11-20T23:50:23.549Z,2.20
2018-11-20T23:52:53.824Z,2.20
2018-11-20T23:55:23.561Z,2.20
2018-11-20T23:57:54.259Z,2.20
